Главная страница
METAR-TAF:

METAR-TAF

Аэропорты :

Николаев, Украина

широта: 47-03-29N, долгота: 031-55-15E, высота над уровнем моря: 56 м

Текущие метеонаблюдения

Эта сводка был подготовлена 10 минут назад, в 03:00 UTC
Ветер 8 Узел от северный
Температура 21°C
Влажность 49%
Давление 1013 hPa
Видимость 10 км и более
Нет облачности ниже 1500 м, и нет кучево-дождевой облачности

METAR: UKON 170300Z 35004MPS CAVOK 21/10 Q1013 NOSIG

Время: 06:10 (03:10 UTC)

Прогноз

Эта сводка был подготовлена 1 час и 8 минут назад, в 02:02 UTC
Прогноз действительный с 17-го 03 UTC до 17-го 12 UTC
Ветер 6 Узел от северо-восточный
Видимость 10 км и более
Отдельные облака на высоте 3000 фута, Кучево-дождевые.

TAF: UKON 170202Z 1703/1712 04003MPS 9999 SCT030CB TX35/1712Z TN20/1703Z

Метеонаблюдения и прогнозы для более 4000 аэропортов (сводки METAR и TAF).

Имеющиеся станции представлены на карте желтыми и красными точками.

Чтобы увидеть название станции, наведите на нее мышь.

Затем щелкните, чтобы увидеть метеонаблюдения и метеопрогнозы.

Управление картой: чтобы увеличить масштаб, щелкните зеленые кнопки с черным крестиком; чтобы уменьшить масштаб, щелкните зеленую кнопку с тире; для просмотра соседних карт щелкайте зеленые стрелки.


METAR-TAF: